Terminal Aerodrome Forecast
Issued by NWS Caribou, ME

Home | Current Version | Previous Version | Text Only | Print | Product List | Glossary On
Versions: 1 2 3 4 5 6 7 8 9 10 11 12 13 14 15 16 17 18
000
FTUS41 KCAR 280910 AAA
TAFBGR
TAF AMD
KBGR 280910Z 2809/2906 19005KT 6SM BR SCT100
     FM281200 20007KT P6SM BKN035
     FM281600 21009KT P6SM -SHRA VCTS SCT025 BKN050CB
     FM282300 28007KT P6SM BKN050
     FM290500 34005KT P6SM BKN040=

USA.gov is the U.S. government's official web portal to all federal, state and local government web resources and services.